Time;durP1;ratioP1;P1;durP2;ratioP2;P2;SDS_P1;SDS_P2;PMS_P1;PMS_P2;Temp;Humidity;BMP_temperature;BMP_pressure;BME280_temperature;BME280_humidity;BME280_pressure;Samples;Min_cycle;Max_cycle;Signal;HPM_P1;HPM_P2
2022/09/10 00:02:00;;;;;;;0.50;0.50;;;18.60;65.80;;;;;;4164963;28;20387;-43
2022/09/10 00:04:23;;;;;;;0.95;0.68;;;18.60;65.70;;;;;;4161394;28;20495;-42
2022/09/10 00:06:45;;;;;;;1.05;0.77;;;18.60;65.70;;;;;;4142965;28;20030;-45
2022/09/10 00:09:09;;;;;;;1.33;0.77;;;18.60;65.80;;;;;;4156438;28;20092;-42
2022/09/10 00:11:34;;;;;;;0.55;0.55;;;18.60;65.80;;;;;;4161062;28;20037;-45
2022/09/10 00:13:57;;;;;;;0.68;0.68;;;18.60;65.80;;;;;;4151003;28;20036;-44
2022/09/10 00:16:20;;;;;;;0.73;0.50;;;18.60;65.80;;;;;;4154519;28;20032;-43
2022/09/10 00:18:43;;;;;;;0.88;0.68;;;18.60;65.80;;;;;;4157134;28;20438;-43
2022/09/10 00:21:09;;;;;;;0.73;0.65;;;18.60;65.90;;;;;;4160882;28;20076;-45
2022/09/10 00:23:31;;;;;;;0.60;0.60;;;18.60;65.80;;;;;;4155535;28;20033;-43
2022/09/10 00:25:56;;;;;;;0.60;0.60;;;18.60;65.80;;;;;;4159208;28;20037;-42
2022/09/10 00:28:20;;;;;;;1.33;1.02;;;18.70;65.80;;;;;;4155715;28;20507;-42
2022/09/10 00:30:44;;;;;;;;;;;18.60;65.70;;;;;;4156020;28;20106;-44
2022/09/10 00:33:07;;;;;;;0.70;0.50;;;18.70;65.70;;;;;;4162327;28;19920;-42
2022/09/10 00:35:32;;;;;;;0.68;0.60;;;18.70;65.70;;;;;;4159513;28;20061;-42
2022/09/10 00:37:55;;;;;;;0.93;0.73;;;18.70;65.60;;;;;;4153907;28;20049;-47
2022/09/10 00:40:18;;;;;;;1.13;0.57;;;18.80;65.60;;;;;;4155951;28;20091;-43
2022/09/10 00:42:45;;;;;;;0.52;0.50;;;18.70;65.50;;;;;;4158845;28;20422;-44
2022/09/10 00:45:09;;;;;;;0.52;0.52;;;18.80;65.50;;;;;;4159179;28;20412;-45
2022/09/10 00:47:37;;;;;;;0.93;0.80;;;18.80;65.50;;;;;;4157629;28;20063;-45
2022/09/10 00:50:03;;;;;;;0.47;0.47;;;18.80;65.50;;;;;;4151728;28;20055;-45
2022/09/10 00:52:28;;;;;;;0.85;0.63;;;18.80;65.50;;;;;;4151722;28;20235;-45
2022/09/10 00:54:51;;;;;;;2.45;0.82;;;18.80;65.50;;;;;;4155981;28;20029;-43
2022/09/10 00:57:22;;;;;;;0.50;0.50;;;18.80;65.50;;;;;;4164677;28;20049;-45
2022/09/10 00:59:50;;;;;;;0.75;0.50;;;18.80;65.50;;;;;;4162666;28;20036;-46
2022/09/10 01:02:13;;;;;;;1.35;0.60;;;18.80;65.50;;;;;;4164039;28;20499;-47
2022/09/10 01:04:37;;;;;;;0.95;0.65;;;18.80;65.50;;;;;;4148295;28;20376;-43
2022/09/10 01:07:01;;;;;;;0.57;0.50;;;18.80;65.50;;;;;;4160176;28;20130;-44
2022/09/10 01:09:24;;;;;;;0.60;0.60;;;18.90;65.40;;;;;;4140081;28;20030;-46
2022/09/10 01:12:21;;;;;;;0.88;0.70;;;18.90;65.40;;;;;;4155199;28;20041;-43
2022/09/10 01:14:53;;;;;;;0.57;0.47;;;18.90;65.40;;;;;;4152658;28;20040;-45
2022/09/10 01:17:37;;;;;;;0.50;0.50;;;18.90;65.20;;;;;;4154199;28;20049;-45
2022/09/10 01:20:17;;;;;;;0.60;0.60;;;19.00;65.20;;;;;;4148523;28;20040;-42
2022/09/10 01:23:00;;;;;;;0.80;0.65;;;19.00;65.10;;;;;;4147593;28;20049;-44
2022/09/10 01:26:10;;;;;;;0.60;0.40;;;19.00;65.20;;;;;;4150448;28;20117;-47
2022/09/10 01:28:50;;;;;;;0.55;0.40;;;19.00;65.20;;;;;;4138625;28;20033;-46
2022/09/10 01:31:30;;;;;;;0.50;0.50;;;19.00;65.20;;;;;;4144367;28;20103;-45
2022/09/10 01:34:02;;;;;;;1.13;0.50;;;19.00;65.20;;;;;;4145615;28;20125;-43
2022/09/10 01:36:32;;;;;;;0.57;0.50;;;19.00;65.20;;;;;;4139214;28;20057;-43
2022/09/10 01:38:56;;;;;;;2.20;0.60;;;19.00;65.30;;;;;;4129665;28;20872;-43
2022/09/10 01:41:24;;;;;;;0.65;0.52;;;19.00;65.30;;;;;;4133840;28;20112;-43
2022/09/10 01:43:47;;;;;;;0.95;0.63;;;19.00;65.20;;;;;;4148586;28;20564;-44
2022/09/10 01:46:25;;;;;;;0.45;0.45;;;19.00;65.20;;;;;;4148723;28;20037;-44
2022/09/10 01:49:03;;;;;;;0.98;0.60;;;19.00;65.20;;;;;;4152788;28;20037;-44
2022/09/10 01:51:39;;;;;;;0.47;0.47;;;19.00;65.20;;;;;;4149693;28;20029;-45
2022/09/10 01:54:24;;;;;;;0.40;0.40;;;19.00;65.20;;;;;;4151860;28;20046;-47
2022/09/10 01:56:52;;;;;;;0.60;0.52;;;19.00;65.20;;;;;;4148803;28;20479;-44
2022/09/10 01:59:36;;;;;;;0.35;0.35;;;19.10;65.10;;;;;;4141972;28;20045;-45
2022/09/10 02:02:04;;;;;;;1.00;0.57;;;19.10;65.00;;;;;;4148375;28;20087;-44
2022/09/10 02:04:28;;;;;;;0.52;0.52;;;19.10;65.10;;;;;;4154800;28;20041;-43
2022/09/10 02:06:51;;;;;;;0.40;0.40;;;19.10;65.00;;;;;;4158361;28;20195;-44
2022/09/10 02:09:16;;;;;;;0.75;0.47;;;19.10;65.00;;;;;;4149867;28;20033;-43
2022/09/10 02:12:05;;;;;;;1.30;0.73;;;19.20;64.90;;;;;;4147284;28;20381;-44
2022/09/10 02:14:27;;;;;;;0.50;0.50;;;19.20;64.90;;;;;;4145377;28;20531;-43
2022/09/10 02:17:00;;;;;;;0.52;0.50;;;19.20;64.80;;;;;;4139590;28;20037;-43
2022/09/10 02:19:24;;;;;;;1.02;0.70;;;19.20;64.70;;;;;;4145831;28;20506;-43
2022/09/10 02:21:46;;;;;;;0.65;0.65;;;19.20;64.70;;;;;;4147525;28;20183;-43
2022/09/10 02:24:11;;;;;;;0.93;0.60;;;19.30;64.70;;;;;;4151759;28;20042;-42
2022/09/10 02:26:37;;;;;;;1.55;0.60;;;19.30;64.60;;;;;;4148013;28;20041;-43
2022/09/10 02:29:00;;;;;;;1.35;0.50;;;19.30;64.40;;;;;;4157254;28;20052;-42
2022/09/10 02:31:26;;;;;;;1.20;0.73;;;19.30;64.50;;;;;;4153940;28;20075;-46
2022/09/10 02:33:50;;;;;;;0.82;0.60;;;19.30;64.50;;;;;;4152546;28;20105;-42
2022/09/10 02:36:12;;;;;;;0.73;0.70;;;19.40;64.60;;;;;;4152180;28;20048;-44
2022/09/10 02:38:35;;;;;;;1.67;0.75;;;19.40;64.40;;;;;;4141385;28;20038;-43
2022/09/10 02:40:58;;;;;;;0.70;0.52;;;19.40;64.40;;;;;;4149862;28;20044;-44
2022/09/10 02:43:20;;;;;;;3.05;0.93;;;19.50;64.40;;;;;;4150454;28;20140;-43
2022/09/10 02:45:44;;;;;;;1.38;0.80;;;19.40;64.40;;;;;;4150436;28;20029;-44
2022/09/10 02:48:06;;;;;;;1.17;0.52;;;19.50;64.30;;;;;;4150122;28;20037;-43
2022/09/10 02:50:29;;;;;;;1.92;0.98;;;19.50;64.20;;;;;;4154396;28;20036;-42
2022/09/10 02:52:52;;;;;;;1.60;0.90;;;19.50;64.10;;;;;;4156229;28;20255;-44
2022/09/10 02:55:15;;;;;;;1.25;0.63;;;19.50;64.10;;;;;;4152106;28;20034;-43
2022/09/10 02:57:41;;;;;;;1.52;0.98;;;19.60;64.20;;;;;;4158977;28;20080;-43
2022/09/10 03:00:04;;;;;;;1.83;0.95;;;19.60;64.10;;;;;;4162204;28;20499;-43
2022/09/10 03:02:27;;;;;;;0.98;0.60;;;19.60;63.90;;;;;;4161963;28;20033;-43
2022/09/10 03:04:49;;;;;;;1.48;0.50;;;19.70;64.10;;;;;;4164737;28;20091;-43
2022/09/10 03:07:16;;;;;;;1.35;0.80;;;19.70;63.80;;;;;;4169238;28;20030;-43
2022/09/10 03:09:39;;;;;;;2.10;0.80;;;19.70;63.70;;;;;;4162743;28;20090;-45
2022/09/10 03:12:02;;;;;;;2.13;0.50;;;19.80;63.80;;;;;;4158037;28;20049;-44
2022/09/10 03:14:27;;;;;;;0.70;0.50;;;19.80;63.70;;;;;;4147391;28;20037;-44
2022/09/10 03:16:49;;;;;;;0.70;0.52;;;19.80;63.60;;;;;;4155401;28;20075;-44
2022/09/10 03:19:13;;;;;;;0.47;0.43;;;19.80;63.50;;;;;;4158760;28;20041;-43
2022/09/10 03:21:35;;;;;;;0.80;0.47;;;19.90;63.50;;;;;;4160384;28;20033;-44
2022/09/10 03:23:58;;;;;;;0.60;0.60;;;19.90;63.40;;;;;;4160701;28;20037;-43
2022/09/10 03:26:24;;;;;;;1.48;0.65;;;20.00;63.40;;;;;;4157723;28;20041;-47
2022/09/10 03:28:47;;;;;;;0.88;0.70;;;20.00;63.30;;;;;;4161904;28;20133;-43
2022/09/10 03:31:10;;;;;;;1.23;0.70;;;20.10;63.20;;;;;;4156688;28;20041;-48
2022/09/10 03:33:34;;;;;;;1.90;0.95;;;20.10;63.00;;;;;;4162746;28;20060;-44
2022/09/10 03:35:57;;;;;;;2.17;0.63;;;20.20;63.00;;;;;;4157403;28;20048;-44
2022/09/10 03:38:21;;;;;;;0.85;0.70;;;20.20;62.70;;;;;;4161028;28;20493;-44
2022/09/10 03:40:43;;;;;;;1.75;0.68;;;20.30;62.70;;;;;;4159382;28;20067;-44
2022/09/10 03:43:06;;;;;;;0.55;0.50;;;20.40;62.60;;;;;;4162904;28;20294;-44
2022/09/10 03:45:29;;;;;;;1.45;0.60;;;20.40;62.50;;;;;;4161940;28;20113;-44
2022/09/10 03:47:52;;;;;;;0.70;0.60;;;20.50;62.40;;;;;;4164099;28;20049;-46
2022/09/10 03:50:15;;;;;;;3.03;0.93;;;20.40;62.20;;;;;;4164757;28;20278;-45
2022/09/10 03:52:38;;;;;;;2.20;1.00;;;20.50;62.20;;;;;;4158463;28;20037;-45
2022/09/10 03:55:01;;;;;;;0.80;0.80;;;20.40;62.20;;;;;;4155861;28;20681;-44
2022/09/10 03:57:25;;;;;;;0.65;0.65;;;20.50;62.30;;;;;;4155495;28;20042;-46
2022/09/10 03:59:47;;;;;;;;;;;20.40;62.20;;;;;;4165181;28;20087;-47
2022/09/10 04:02:10;;;;;;;1.00;0.70;;;20.40;62.30;;;;;;4156460;28;19909;-48
2022/09/10 04:04:33;;;;;;;0.57;0.50;;;20.50;62.30;;;;;;4157784;28;20342;-45
2022/09/10 04:06:55;;;;;;;0.50;0.47;;;20.50;62.20;;;;;;4152711;28;20073;-51
2022/09/10 04:09:18;;;;;;;0.77;0.77;;;20.50;62.10;;;;;;4159494;28;20072;-43
2022/09/10 04:11:41;;;;;;;1.05;0.65;;;20.50;62.30;;;;;;4164889;28;20533;-46
2022/09/10 04:14:03;;;;;;;1.20;0.75;;;20.60;62.10;;;;;;4152513;28;20603;-47
2022/09/10 04:16:26;;;;;;;0.30;0.30;;;20.70;62.20;;;;;;4150024;28;20593;-44
2022/09/10 04:18:50;;;;;;;0.85;0.60;;;20.70;61.90;;;;;;4145892;28;20397;-46
2022/09/10 04:21:12;;;;;;;0.85;0.70;;;20.70;61.70;;;;;;4143745;28;20037;-43
2022/09/10 04:23:35;;;;;;;0.50;0.50;;;20.80;61.70;;;;;;4147923;28;20048;-45
2022/09/10 04:25:58;;;;;;;1.02;0.50;;;20.80;61.90;;;;;;4147250;28;20098;-45
2022/09/10 04:28:20;;;;;;;0.73;0.47;;;20.80;61.90;;;;;;4151675;28;20041;-44
2022/09/10 04:30:44;;;;;;;0.43;0.43;;;20.90;61.60;;;;;;4149708;28;20112;-46
2022/09/10 04:33:07;;;;;;;0.63;0.60;;;21.00;61.50;;;;;;4151550;28;20529;-50
2022/09/10 04:35:30;;;;;;;0.50;0.50;;;21.10;61.30;;;;;;4146750;28;20450;-46
2022/09/10 04:37:52;;;;;;;0.47;0.47;;;21.20;61.10;;;;;;4148288;28;20049;-45
2022/09/10 04:40:15;;;;;;;0.60;0.50;;;21.30;61.10;;;;;;4154755;28;20044;-48
2022/09/10 04:42:38;;;;;;;0.30;0.30;;;21.30;60.60;;;;;;4148521;28;20045;-45
2022/09/10 04:45:00;;;;;;;0.50;0.50;;;21.40;60.70;;;;;;4150764;28;20057;-44
2022/09/10 04:47:23;;;;;;;0.60;0.60;;;21.50;60.30;;;;;;4151501;28;20069;-47
2022/09/10 04:49:45;;;;;;;0.60;0.40;;;21.50;60.20;;;;;;4145880;28;20041;-44
2022/09/10 04:52:09;;;;;;;1.25;0.47;;;21.50;60.20;;;;;;4153266;28;20064;-48
2022/09/10 04:54:36;;;;;;;0.50;0.40;;;21.40;60.90;;;;;;4156791;28;20083;-46
2022/09/10 04:56:59;;;;;;;0.82;0.40;;;21.40;60.20;;;;;;4149045;28;20195;-51
2022/09/10 04:59:22;;;;;;;0.70;0.50;;;21.40;60.20;;;;;;4159425;28;20041;-45
2022/09/10 05:01:45;;;;;;;0.25;0.25;;;21.30;60.20;;;;;;4143489;28;20388;-44
2022/09/10 05:04:07;;;;;;;1.42;0.80;;;21.30;60.40;;;;;;4154292;28;20042;-48
2022/09/10 05:06:30;;;;;;;0.45;0.45;;;21.30;60.30;;;;;;4150718;28;20501;-44
2022/09/10 05:08:53;;;;;;;0.40;0.30;;;21.20;60.40;;;;;;4154950;28;20116;-44
2022/09/10 05:11:18;;;;;;;0.43;0.43;;;21.20;60.50;;;;;;4163072;28;20048;-45
2022/09/10 05:13:42;;;;;;;0.40;0.40;;;21.20;60.50;;;;;;4159473;28;20077;-44
2022/09/10 05:16:05;;;;;;;0.40;0.40;;;21.20;60.60;;;;;;4150783;28;20052;-44
2022/09/10 05:18:27;;;;;;;0.77;0.30;;;21.20;60.60;;;;;;4158569;28;20072;-47
2022/09/10 05:20:51;;;;;;;0.30;0.30;;;21.30;60.80;;;;;;4155325;28;20285;-48
2022/09/10 05:23:13;;;;;;;0.60;0.60;;;21.40;60.50;;;;;;4147164;28;20045;-45
2022/09/10 05:25:36;;;;;;;1.55;0.40;;;21.50;60.10;;;;;;4152163;28;20282;-47
2022/09/10 05:28:00;;;;;;;0.40;0.40;;;21.50;60.10;;;;;;4152752;28;20042;-45
2022/09/10 05:30:22;;;;;;;0.30;0.30;;;21.60;60.30;;;;;;4151043;28;20033;-45
2022/09/10 05:32:46;;;;;;;0.75;0.45;;;21.70;60.40;;;;;;4153500;28;20430;-44
2022/09/10 05:35:09;;;;;;;0.40;0.40;;;21.70;60.30;;;;;;4147695;28;20448;-45
2022/09/10 05:37:32;;;;;;;1.38;0.40;;;21.90;60.30;;;;;;4151535;28;20633;-46
2022/09/10 05:39:54;;;;;;;0.38;0.38;;;21.90;60.10;;;;;;4152324;28;20108;-48
2022/09/10 05:42:17;;;;;;;0.40;0.40;;;22.00;60.10;;;;;;4152785;28;20048;-47
2022/09/10 05:44:40;;;;;;;0.90;0.50;;;22.10;60.00;;;;;;4153811;28;20265;-47
2022/09/10 05:47:02;;;;;;;0.63;0.50;;;22.10;60.00;;;;;;4155400;28;20772;-46
2022/09/10 05:49:25;;;;;;;0.43;0.43;;;22.20;59.90;;;;;;4161435;28;20068;-45
2022/09/10 05:51:48;;;;;;;0.38;0.30;;;22.30;60.30;;;;;;4153999;28;20041;-45
2022/09/10 05:54:11;;;;;;;0.80;0.52;;;22.40;59.90;;;;;;4156423;28;20103;-45
2022/09/10 05:56:34;;;;;;;0.40;0.30;;;22.50;59.70;;;;;;4154670;28;20133;-47
2022/09/10 05:58:56;;;;;;;0.40;0.40;;;22.60;59.30;;;;;;4155688;28;20098;-46
2022/09/10 06:01:19;;;;;;;0.68;0.50;;;22.50;59.60;;;;;;4152317;28;20533;-45
2022/09/10 06:03:42;;;;;;;0.73;0.55;;;22.60;60.00;;;;;;4152883;28;20694;-44
2022/09/10 06:06:06;;;;;;;0.40;0.40;;;22.60;59.80;;;;;;4155805;28;20052;-45
2022/09/10 06:08:30;;;;;;;0.30;0.30;;;22.70;60.00;;;;;;4141589;28;20041;-44
2022/09/10 06:10:57;;;;;;;0.40;0.30;;;22.70;59.50;;;;;;4143943;28;20100;-44
2022/09/10 06:13:20;;;;;;;0.35;0.35;;;22.70;59.30;;;;;;4150637;28;20052;-45
2022/09/10 06:15:42;;;;;;;0.40;0.35;;;22.60;59.40;;;;;;4144402;28;20120;-46
2022/09/10 06:18:05;;;;;;;0.63;0.40;;;22.60;59.60;;;;;;4146182;28;20140;-44
2022/09/10 06:20:28;;;;;;;0.40;0.38;;;22.50;59.80;;;;;;4150219;28;20582;-48
2022/09/10 06:22:51;;;;;;;0.35;0.35;;;22.40;59.90;;;;;;4152625;28;20330;-45
2022/09/10 06:25:13;;;;;;;0.30;0.30;;;22.40;59.80;;;;;;4151434;28;20034;-46
2022/09/10 06:27:37;;;;;;;0.40;0.40;;;22.30;60.00;;;;;;4151055;28;20037;-45
2022/09/10 06:29:59;;;;;;;0.57;0.40;;;22.30;60.00;;;;;;4155572;28;20072;-44
2022/09/10 06:32:22;;;;;;;0.50;0.50;;;22.30;60.10;;;;;;4159440;28;20533;-47
2022/09/10 06:34:45;;;;;;;0.30;0.30;;;22.30;60.30;;;;;;4166206;28;20068;-46
2022/09/10 06:37:07;;;;;;;0.52;0.47;;;22.30;60.40;;;;;;4166015;28;20832;-46
2022/09/10 06:39:30;;;;;;;0.35;0.35;;;22.40;60.60;;;;;;4165562;28;20351;-44
2022/09/10 06:41:52;;;;;;;0.60;0.50;;;22.50;59.80;;;;;;4164745;28;20037;-45
2022/09/10 06:44:16;;;;;;;0.65;0.30;;;22.60;59.00;;;;;;4158700;28;20478;-45
2022/09/10 06:46:39;;;;;;;0.40;0.40;;;22.50;58.90;;;;;;4162948;28;20547;-47
2022/09/10 06:49:03;;;;;;;0.55;0.55;;;22.50;59.00;;;;;;4156057;28;20048;-48
2022/09/10 06:51:24;;;;;;;;;;;22.40;59.20;;;;;;4162143;28;20044;-44
2022/09/10 06:53:47;;;;;;;0.80;0.80;;;22.40;59.40;;;;;;4160757;28;19971;-45
2022/09/10 06:56:11;;;;;;;0.73;0.50;;;22.70;59.80;;;;;;4156930;28;20434;-46
2022/09/10 06:58:35;;;;;;;0.90;0.90;;;23.60;56.50;;;;;;4157770;28;20076;-46
2022/09/10 07:00:58;;;;;;;1.58;1.30;;;23.80;56.00;;;;;;4155372;28;20036;-49
2022/09/10 07:03:22;;;;;;;1.08;0.57;;;24.20;55.30;;;;;;4157858;28;20080;-46
2022/09/10 07:05:45;;;;;;;0.40;0.40;;;24.80;53.30;;;;;;4162172;28;20542;-45
2022/09/10 07:08:11;;;;;;;0.55;0.40;;;24.80;53.30;;;;;;4159898;28;20048;-46
2022/09/10 07:10:36;;;;;;;1.33;0.50;;;24.50;53.80;;;;;;4155158;28;20503;-45
2022/09/10 07:13:01;;;;;;;0.57;0.50;;;24.00;54.60;;;;;;4159985;28;20045;-44
2022/09/10 07:15:24;;;;;;;0.80;0.55;;;23.60;55.60;;;;;;4152295;28;20044;-47
2022/09/10 07:17:47;;;;;;;0.80;0.60;;;23.30;56.50;;;;;;4160142;28;20041;-45
2022/09/10 07:20:09;;;;;;;1.73;0.80;;;23.00;57.20;;;;;;4156709;28;20275;-46
2022/09/10 07:22:32;;;;;;;1.45;0.93;;;22.80;57.70;;;;;;4160046;28;20150;-51
2022/09/10 07:24:55;;;;;;;1.50;0.90;;;22.60;58.10;;;;;;4165069;28;20053;-46
2022/09/10 07:27:18;;;;;;;2.13;0.90;;;22.50;58.40;;;;;;4156565;28;20576;-47
2022/09/10 07:29:41;;;;;;;1.27;0.70;;;22.40;58.60;;;;;;4158320;28;20124;-46
2022/09/10 07:32:04;;;;;;;1.55;1.00;;;22.40;58.90;;;;;;4160295;28;20045;-46
2022/09/10 07:34:26;;;;;;;1.60;0.93;;;22.30;59.10;;;;;;4150911;28;20099;-48
2022/09/10 07:36:55;;;;;;;1.75;0.90;;;22.30;59.20;;;;;;4162456;28;20080;-45
2022/09/10 07:39:18;;;;;;;1.20;0.65;;;22.20;59.20;;;;;;4161018;28;20041;-45
2022/09/10 07:41:40;;;;;;;2.88;1.17;;;22.20;59.40;;;;;;4163892;28;20112;-45
2022/09/10 07:44:03;;;;;;;2.50;1.52;;;22.10;59.60;;;;;;4163639;28;20041;-44
2022/09/10 07:46:27;;;;;;;5.93;2.60;;;22.10;59.70;;;;;;4156409;28;20083;-44
2022/09/10 07:48:55;;;;;;;9.27;4.10;;;22.10;59.90;;;;;;4164723;28;20128;-49
2022/09/10 07:51:18;;;;;;;11.13;4.85;;;22.10;60.10;;;;;;4162671;28;20040;-47
2022/09/10 07:53:40;;;;;;;16.15;7.30;;;22.00;60.10;;;;;;4161931;28;20411;-45
2022/09/10 07:56:05;;;;;;;16.95;8.68;;;22.00;60.20;;;;;;4158932;28;20443;-45
2022/09/10 07:58:30;;;;;;;20.75;9.50;;;22.00;60.40;;;;;;4163186;28;20437;-45
2022/09/10 08:00:53;;;;;;;20.85;10.57;;;22.00;60.40;;;;;;4144568;28;20044;-46
2022/09/10 08:03:17;;;;;;;24.25;12.13;;;21.90;60.70;;;;;;4160976;28;20116;-44
2022/09/10 08:05:39;;;;;;;;;;;21.90;60.50;;;;;;4160472;28;20519;-47
2022/09/10 08:08:02;;;;;;;22.40;11.25;;;21.90;60.60;;;;;;4152218;28;20438;-44
2022/09/10 08:10:25;;;;;;;18.92;11.45;;;21.90;60.70;;;;;;4159794;28;20048;-47
2022/09/10 08:12:48;;;;;;;21.13;11.10;;;21.90;60.80;;;;;;4146631;28;20033;-46
2022/09/10 08:15:11;;;;;;;23.08;10.13;;;21.90;60.70;;;;;;4150936;28;20033;-44
2022/09/10 08:17:38;;;;;;;19.40;9.43;;;21.90;61.00;;;;;;4152530;28;20053;-45
2022/09/10 08:20:02;;;;;;;19.77;10.18;;;21.90;60.90;;;;;;4153170;28;20048;-46
2022/09/10 08:22:25;;;;;;;17.83;9.60;;;21.80;60.90;;;;;;4140500;28;20522;-46
2022/09/10 08:24:48;;;;;;;18.60;9.17;;;21.80;61.00;;;;;;4120817;28;20056;-48
2022/09/10 08:27:10;;;;;;;15.23;8.75;;;21.80;61.10;;;;;;4130963;28;20526;-50
2022/09/10 08:29:33;;;;;;;19.10;9.13;;;21.80;61.00;;;;;;4127528;28;20041;-48
2022/09/10 08:31:57;;;;;;;17.83;8.75;;;21.80;61.00;;;;;;4138013;28;20058;-46
2022/09/10 08:34:20;;;;;;;15.15;8.00;;;21.80;61.10;;;;;;4137318;28;20130;-57
2022/09/10 08:36:43;;;;;;;13.70;7.10;;;21.80;61.10;;;;;;4125464;28;20553;-46
2022/09/10 08:39:08;;;;;;;12.32;6.95;;;21.70;61.00;;;;;;4127425;28;22300;-46
2022/09/10 08:41:37;;;;;;;12.50;7.47;;;21.70;61.10;;;;;;4129843;28;20176;-44
2022/09/10 08:44:23;;;;;;;12.45;7.25;;;21.70;61.10;;;;;;4132691;28;20041;-45
2022/09/10 08:47:10;;;;;;;17.65;7.10;;;21.70;61.20;;;;;;4137254;28;20048;-44
2022/09/10 08:50:15;;;;;;;17.38;6.97;;;21.70;61.70;;;;;;4131546;28;20125;-44
2022/09/10 08:53:09;;;;;;;19.17;6.97;;;21.70;61.80;;;;;;4115934;28;20065;-46
2022/09/10 08:55:34;;;;;;;19.70;6.25;;;21.70;62.00;;;;;;4133944;28;20037;-44
2022/09/10 08:58:19;;;;;;;17.83;6.65;;;21.70;62.20;;;;;;4133704;28;20605;-47
2022/09/10 09:00:45;;;;;;;;;;;21.70;62.40;;;;;;4138733;28;20119;-47
2022/09/10 09:03:31;;;;;;;11.07;5.85;;;21.70;62.50;;;;;;4136584;28;20971;-46
2022/09/10 09:06:03;;;;;;;9.50;5.20;;;21.80;62.90;;;;;;4125189;28;20100;-45
2022/09/10 09:08:35;;;;;;;10.93;5.03;;;21.80;63.10;;;;;;4130501;28;20529;-44
2022/09/10 09:11:19;;;;;;;9.73;4.18;;;21.80;63.40;;;;;;4127110;28;20060;-44
2022/09/10 09:14:00;;;;;;;10.55;4.15;;;21.80;63.50;;;;;;4132664;28;20050;-45
2022/09/10 09:16:58;;;;;;;7.65;4.10;;;21.80;63.70;;;;;;4133323;28;20042;-42
2022/09/10 09:19:37;;;;;;;10.13;4.38;;;21.90;63.80;;;;;;4133484;28;20045;-42
2022/09/10 09:22:38;;;;;;;10.02;3.80;;;21.90;64.10;;;;;;4126209;28;20060;-44
2022/09/10 09:25:21;;;;;;;9.73;3.08;;;21.90;64.10;;;;;;4120635;28;20065;-44
2022/09/10 09:27:44;;;;;;;6.40;3.28;;;21.90;64.20;;;;;;4133576;28;20107;-45
2022/09/10 09:30:21;;;;;;;10.02;3.78;;;22.00;64.00;;;;;;4138932;28;20030;-45
2022/09/10 09:32:46;;;;;;;5.28;3.08;;;22.00;63.80;;;;;;4140045;28;20187;-44
2022/09/10 09:35:37;;;;;;;5.03;2.60;;;22.00;63.30;;;;;;4139109;28;20069;-43
2022/09/10 09:38:26;;;;;;;6.95;3.05;;;21.90;62.90;;;;;;4139668;28;20512;-43
2022/09/10 09:40:55;;;;;;;4.57;2.78;;;21.90;62.50;;;;;;4147080;28;20061;-45
2022/09/10 09:43:41;;;;;;;4.88;2.95;;;21.90;62.40;;;;;;4125116;28;20049;-44
2022/09/10 09:46:19;;;;;;;7.20;3.00;;;21.90;63.10;;;;;;4127988;28;20161;-43
2022/09/10 09:48:43;;;;;;;10.60;2.88;;;21.90;63.00;;;;;;4135729;28;20037;-42
2022/09/10 09:51:09;;;;;;;;;;;21.90;63.50;;;;;;4131223;28;20327;-45
2022/09/10 09:53:32;;;;;;;10.45;2.58;;;21.90;63.70;;;;;;4129997;28;19913;-43
2022/09/10 09:56:01;;;;;;;5.50;2.20;;;21.90;63.80;;;;;;4132154;28;20042;-43
2022/09/10 09:58:25;;;;;;;5.55;2.40;;;21.90;64.20;;;;;;4131481;28;20050;-42
2022/09/10 10:01:03;;;;;;;3.60;2.10;;;21.90;64.40;;;;;;4132296;28;20034;-44
2022/09/10 10:03:28;;;;;;;4.13;1.73;;;21.90;64.50;;;;;;4131126;28;20333;-42
2022/09/10 10:06:11;;;;;;;5.15;2.28;;;21.90;64.40;;;;;;4126612;28;20471;-41
2022/09/10 10:08:36;;;;;;;3.80;2.28;;;21.90;64.50;;;;;;4140509;28;20381;-44
2022/09/10 10:10:59;;;;;;;11.73;2.00;;;21.90;64.70;;;;;;4139642;28;20048;-42
2022/09/10 10:13:23;;;;;;;4.68;2.00;;;21.90;64.70;;;;;;4130411;28;20076;-42
2022/09/10 10:15:45;;;;;;;5.00;1.73;;;21.90;64.80;;;;;;4128879;28;20498;-42
2022/09/10 10:18:23;;;;;;;4.00;1.40;;;21.90;64.80;;;;;;4135723;28;20056;-43
2022/09/10 10:20:45;;;;;;;19.92;1.90;;;21.90;64.90;;;;;;4141946;28;20033;-43
2022/09/10 10:23:29;;;;;;;3.42;1.45;;;21.90;65.10;;;;;;4141953;28;20490;-44
2022/09/10 10:25:52;;;;;;;6.20;1.70;;;21.90;65.10;;;;;;4140999;28;20056;-41
2022/09/10 10:28:24;;;;;;;3.40;1.73;;;22.00;65.20;;;;;;4132519;28;20034;-44
2022/09/10 10:30:52;;;;;;;6.45;1.45;;;21.90;65.10;;;;;;4136869;28;20100;-41
2022/09/10 10:33:18;;;;;;;5.03;1.73;;;22.00;65.20;;;;;;4136455;28;20064;-44
2022/09/10 10:35:57;;;;;;;4.80;1.45;;;21.90;66.00;;;;;;4136487;28;20038;-42
2022/09/10 10:38:39;;;;;;;3.42;1.30;;;22.00;65.30;;;;;;4140881;28;20054;-42
2022/09/10 10:41:10;;;;;;;2.38;1.17;;;22.00;65.20;;;;;;4141985;28;20037;-43
2022/09/10 10:43:39;;;;;;;4.85;1.63;;;22.00;65.20;;;;;;4131901;28;20726;-44
2022/09/10 10:46:12;;;;;;;8.80;2.10;;;22.00;65.40;;;;;;4138874;28;20048;-41
2022/09/10 10:48:49;;;;;;;12.55;3.35;;;22.00;65.40;;;;;;4139402;28;20037;-58
2022/09/10 10:51:47;;;;;;;9.88;2.08;;;22.00;64.50;;;;;;4128305;28;20053;-42
2022/09/10 10:54:15;;;;;;;5.68;1.30;;;22.00;63.50;;;;;;4123732;28;20038;-43
2022/09/10 10:57:04;;;;;;;5.47;1.17;;;22.00;62.70;;;;;;4147404;28;20099;-42
2022/09/10 10:59:52;;;;;;;5.90;1.27;;;22.00;62.20;;;;;;4147418;28;20048;-47
2022/09/10 11:02:27;;;;;;;3.55;1.25;;;22.00;62.10;;;;;;4151025;28;20080;-43
2022/09/10 11:04:52;;;;;;;4.05;1.30;;;22.00;62.30;;;;;;4151102;28;20476;-47
2022/09/10 11:07:29;;;;;;;5.80;1.00;;;22.00;62.50;;;;;;4144148;28;20112;-47
2022/09/10 11:09:57;;;;;;;3.78;0.90;;;22.00;62.80;;;;;;4136971;28;20044;-45
2022/09/10 11:12:35;;;;;;;4.50;1.25;;;22.00;63.50;;;;;;4141313;28;20029;-46
2022/09/10 11:15:23;;;;;;;4.28;1.70;;;22.10;64.10;;;;;;4140356;28;20478;-45
2022/09/10 11:18:18;;;;;;;3.95;1.60;;;22.20;63.90;;;;;;4141238;28;20045;-45
2022/09/10 11:20:42;;;;;;;;;;;22.20;63.30;;;;;;4140883;28;20030;-45
2022/09/10 11:23:04;;;;;;;17.98;2.00;;;22.10;63.60;;;;;;4135401;28;20458;-47
2022/09/10 11:25:42;;;;;;;4.15;1.40;;;22.20;63.90;;;;;;4133981;28;20410;-46
2022/09/10 11:28:18;;;;;;;3.63;1.75;;;22.20;63.80;;;;;;4130903;28;20680;-48
2022/09/10 11:30:46;;;;;;;8.10;1.77;;;22.20;63.70;;;;;;4139900;28;20497;-49
2022/09/10 11:33:23;;;;;;;3.28;1.33;;;22.10;63.60;;;;;;4147508;28;20097;-45
2022/09/10 11:36:02;;;;;;;2.55;1.10;;;22.20;63.70;;;;;;4129384;28;20126;-52
2022/09/10 11:38:47;;;;;;;2.83;1.23;;;22.10;63.60;;;;;;4140651;28;20447;-51
2022/09/10 11:41:41;;;;;;;1.63;1.05;;;22.10;63.60;;;;;;4140021;28;20064;-50
2022/09/10 11:44:13;;;;;;;3.67;1.10;;;22.10;63.60;;;;;;4135125;28;20553;-47
2022/09/10 11:46:40;;;;;;;1.42;0.90;;;22.10;63.50;;;;;;4136284;28;20037;-48
2022/09/10 11:49:18;;;;;;;0.82;0.82;;;22.10;63.50;;;;;;4135554;28;20075;-47
2022/09/10 11:51:43;;;;;;;3.08;1.25;;;22.10;63.50;;;;;;4141744;28;20037;-47
2022/09/10 11:54:26;;;;;;;2.10;1.20;;;22.10;63.50;;;;;;4139685;28;20041;-49
2022/09/10 11:56:58;;;;;;;1.87;1.10;;;22.10;63.80;;;;;;4141826;28;20033;-46
2022/09/10 11:59:40;;;;;;;6.05;1.00;;;22.10;63.80;;;;;;4138600;28;20286;-47
2022/09/10 12:02:19;;;;;;;6.15;1.10;;;22.10;63.90;;;;;;4139131;28;20042;-48
2022/09/10 12:05:17;;;;;;;3.55;0.80;;;22.10;63.80;;;;;;4139060;28;20049;-50
2022/09/10 12:08:11;;;;;;;9.52;0.70;;;22.10;63.80;;;;;;4138734;28;20060;-51
2022/09/10 12:10:55;;;;;;;2.60;0.98;;;22.10;63.60;;;;;;4144932;28;20049;-48
2022/09/10 12:13:17;;;;;;;3.38;0.70;;;22.10;63.60;;;;;;4139058;28;20080;-46
2022/09/10 12:15:48;;;;;;;3.65;0.82;;;22.10;63.60;;;;;;4135079;28;20056;-46
2022/09/10 12:18:15;;;;;;;12.20;1.05;;;22.10;63.70;;;;;;4141508;28;20048;-45
2022/09/10 12:20:43;;;;;;;4.10;0.85;;;22.10;63.80;;;;;;4140389;28;20259;-50
2022/09/10 12:23:06;;;;;;;4.22;1.00;;;22.10;63.60;;;;;;4130535;28;20491;-47
2022/09/10 12:25:31;;;;;;;2.10;0.80;;;22.10;63.70;;;;;;4139444;28;20033;-46
2022/09/10 12:27:59;;;;;;;1.50;0.82;;;22.10;63.60;;;;;;4138637;28;20379;-45
2022/09/10 12:30:33;;;;;;;1.90;0.70;;;22.10;63.60;;;;;;4125371;28;20037;-48
2022/09/10 12:33:00;;;;;;;2.50;0.80;;;22.10;63.60;;;;;;4124040;28;20057;-47
2022/09/10 12:35:47;;;;;;;1.13;0.70;;;22.00;63.50;;;;;;4127247;28;20531;-48
2022/09/10 12:38:44;;;;;;;3.55;0.90;;;22.00;63.50;;;;;;4143317;28;20415;-49
2022/09/10 12:41:20;;;;;;;1.60;0.70;;;22.00;63.50;;;;;;4138704;28;20124;-48
2022/09/10 12:43:42;;;;;;;10.10;1.05;;;22.00;63.50;;;;;;4136992;28;20052;-49
2022/09/10 12:46:18;;;;;;;1.17;0.60;;;22.00;63.40;;;;;;4135940;28;20148;-47
2022/09/10 12:48:45;;;;;;;1.35;0.77;;;22.00;63.30;;;;;;4138466;28;20531;-45
2022/09/10 12:51:20;;;;;;;2.40;0.70;;;22.00;63.30;;;;;;4139501;28;20034;-49
2022/09/10 12:53:58;;;;;;;2.80;0.65;;;22.00;63.30;;;;;;4143392;28;20116;-50